createdAt,value
2022-09-24T00:01:17.804Z,101046.44
2022-09-24T00:06:21.765Z,101045.09
2022-09-24T00:11:28.635Z,101047.88
2022-09-24T00:16:33.750Z,101042.06
2022-09-24T00:21:38.031Z,101054.41
2022-09-24T00:26:50.894Z,101050.28
2022-09-24T00:31:53.990Z,101047.88
2022-09-24T00:36:56.581Z,101047.16
2022-09-24T00:42:00.858Z,101042.81
2022-09-24T00:47:03.568Z,101046.66
2022-09-24T00:52:06.300Z,101044.97
2022-09-24T00:57:10.200Z,101041.47
2022-09-24T01:02:13.029Z,101036.97
2022-09-24T01:07:15.636Z,101032.97
2022-09-24T01:12:29.891Z,101030.19
2022-09-24T01:17:40.837Z,101027.66
2022-09-24T01:22:55.582Z,101013.72
2022-09-24T01:28:14.555Z,101002.94
2022-09-24T01:33:24.015Z,101007.19
2022-09-24T01:38:29.304Z,101006.34
2022-09-24T01:43:32.957Z,100996.66
2022-09-24T01:48:38.736Z,100985.28
2022-09-24T01:53:45.368Z,100980.91
2022-09-24T01:58:52.806Z,100966.50
2022-09-24T02:04:01.378Z,100967.81
2022-09-24T02:09:05.104Z,100958.28
2022-09-24T02:14:11.313Z,100961.06
2022-09-24T02:26:03.192Z,100960.34
2022-09-24T02:31:09.349Z,100963.25
2022-09-24T02:36:12.535Z,100958.03
2022-09-24T02:41:16.568Z,100961.53
2022-09-24T02:46:19.253Z,100955.38
2022-09-24T02:51:22.497Z,100949.09
2022-09-24T02:56:26.760Z,100944.72
2022-09-24T03:01:29.871Z,100931.06
2022-09-24T03:06:32.666Z,100929.72
2022-09-24T03:11:36.741Z,100933.22
2022-09-24T03:16:39.361Z,100930.69
2022-09-24T03:21:41.905Z,100930.56
2022-09-24T03:26:45.815Z,100924.03
2022-09-24T03:31:48.735Z,100919.09
2022-09-24T03:36:51.293Z,100915.56
2022-09-24T03:41:55.569Z,100915.66
2022-09-24T03:46:58.299Z,100910.13
2022-09-24T03:52:00.867Z,100903.56
2022-09-24T03:57:04.969Z,100901.75
2022-09-24T04:02:07.746Z,100903.94
2022-09-24T04:07:10.311Z,100900.56
2022-09-24T04:12:14.991Z,100903.56
2022-09-24T04:17:17.693Z,100904.28
2022-09-24T04:22:20.210Z,100895.13
2022-09-24T04:27:24.379Z,100894.97
2022-09-24T04:32:26.900Z,100892.56
2022-09-24T04:37:29.409Z,100897.28
2022-09-24T04:42:33.728Z,100895.22
2022-09-24T04:47:36.860Z,100901.41
2022-09-24T04:52:40.209Z,100849.28
2022-09-24T04:57:45.039Z,100895.22
2022-09-24T05:02:47.672Z,100892.09
2022-09-24T05:07:51.158Z,100905.28
2022-09-24T05:12:55.416Z,100901.63
2022-09-24T05:17:58.042Z,100911.56
2022-09-24T05:23:00.678Z,100908.06
2022-09-24T05:28:04.563Z,100910.59
2022-09-24T05:33:07.100Z,100911.47
2022-09-24T05:38:09.636Z,100914.47
2022-09-24T05:43:13.713Z,100917.88
2022-09-24T05:48:16.279Z,100923.19
2022-09-24T05:53:18.779Z,100919.31
2022-09-24T05:58:22.796Z,100920.41
2022-09-24T06:03:25.372Z,100924.41
2022-09-24T06:08:27.951Z,100923.44
2022-09-24T06:13:33.612Z,100924.41
2022-09-24T06:18:37.505Z,100916.16
2022-09-24T06:23:40.171Z,100911.56
2022-09-24T06:28:44.065Z,100922.56
2022-09-24T06:33:46.636Z,100925.94
2022-09-24T06:38:51.809Z,100930.09
2022-09-24T06:43:56.538Z,100939.41
2022-09-24T06:48:59.062Z,100939.16
2022-09-24T06:54:01.590Z,100949.53
2022-09-24T06:59:06.537Z,100942.75
2022-09-24T07:04:09.245Z,100943.47
2022-09-24T07:09:11.923Z,100956.31
2022-09-24T07:14:15.817Z,100950.38
2022-09-24T07:19:18.346Z,100949.97
2022-09-24T07:24:20.891Z,100954.47
2022-09-24T07:29:24.805Z,100961.94
2022-09-24T07:34:27.365Z,100959.41
2022-09-24T07:39:30.269Z,100962.31
2022-09-24T07:44:36.512Z,100962.66
2022-09-24T07:49:39.957Z,100965.88
2022-09-24T07:54:42.524Z,100972.97
2022-09-24T07:59:46.565Z,100972.53
2022-09-24T08:04:49.181Z,100983.41
2022-09-24T08:09:51.793Z,100981.06
2022-09-24T08:14:55.663Z,100981.94
2022-09-24T08:19:58.667Z,100972.28
2022-09-24T08:25:03.023Z,100975.59
2022-09-24T08:30:08.489Z,100980.19
2022-09-24T08:35:12.925Z,100986.50
2022-09-24T08:40:19.709Z,100983.94
2022-09-24T08:45:41.376Z,100988.22
2022-09-24T08:50:50.307Z,100985.94
2022-09-24T08:55:56.735Z,100983.38
2022-09-24T09:01:08.299Z,100996.78
2022-09-24T09:06:15.970Z,100986.50
2022-09-24T09:11:24.209Z,100992.00
2022-09-24T09:16:33.794Z,100957.47
2022-09-24T09:21:41.564Z,100996.13
2022-09-24T09:26:47.573Z,100996.88
2022-09-24T09:32:02.040Z,101007.22
2022-09-24T09:37:15.326Z,101003.03
2022-09-24T09:42:27.344Z,100996.13
2022-09-24T09:47:41.679Z,101001.75
2022-09-24T09:53:37.920Z,100997.34
2022-09-24T09:58:47.038Z,101000.28
2022-09-24T10:03:51.736Z,101003.75
2022-09-24T10:08:54.716Z,101004.59
2022-09-24T10:14:03.327Z,101006.50
2022-09-24T10:19:17.041Z,101007.78
2022-09-24T10:24:22.224Z,101002.25
2022-09-24T10:29:45.869Z,101014.72
2022-09-24T10:34:57.390Z,101008.16
2022-09-24T10:40:01.071Z,101010.06
2022-09-24T10:45:04.619Z,100966.59
2022-09-24T10:50:24.235Z,101006.50
2022-09-24T10:55:46.017Z,101011.09
2022-09-24T11:01:00.632Z,101005.03
2022-09-24T11:18:59.005Z,101012.50
2022-09-24T11:24:25.797Z,101007.16
2022-09-24T11:29:49.523Z,101010.81
2022-09-24T11:35:23.740Z,101004.06
2022-09-24T11:40:58.885Z,100999.69
2022-09-24T11:46:17.814Z,100998.88
2022-09-24T11:51:32.044Z,101007.84
2022-09-24T11:56:40.804Z,101003.94
2022-09-24T12:01:50.514Z,101004.06
2022-09-24T12:07:03.466Z,100999.84
2022-09-24T12:12:12.681Z,100988.00
2022-09-24T12:17:23.338Z,100989.09
2022-09-24T12:22:29.676Z,100992.47
2022-09-24T12:27:38.133Z,100989.78
2022-09-24T12:32:55.744Z,100989.53
2022-09-24T12:38:04.700Z,100976.56
2022-09-24T12:43:26.050Z,100975.44
2022-09-24T12:48:30.256Z,100971.63
2022-09-24T12:53:37.209Z,100978.69
2022-09-24T12:58:42.042Z,100981.22
2022-09-24T13:03:47.244Z,100984.34
2022-09-24T13:08:51.621Z,100981.22
2022-09-24T13:14:00.876Z,100986.03
2022-09-24T13:19:07.985Z,100982.91
2022-09-24T13:24:13.381Z,100976.47
2022-09-24T13:29:25.229Z,100972.09
2022-09-24T13:34:29.282Z,100970.66
2022-09-24T13:39:41.573Z,100940.22
2022-09-24T13:44:47.535Z,100973.19
2022-09-24T13:49:54.061Z,100973.72
2022-09-24T13:55:01.996Z,100968.28
2022-09-24T14:00:14.112Z,100972.91
2022-09-24T14:05:18.507Z,100973.06
2022-09-24T14:10:25.225Z,100975.19
2022-09-24T14:15:28.192Z,100972.75
2022-09-24T14:20:34.713Z,100972.78
2022-09-24T14:25:39.753Z,100973.22
2022-09-24T14:30:52.206Z,100975.75
2022-09-24T14:35:56.925Z,100976.72
2022-09-24T14:41:04.108Z,100978.97
2022-09-24T14:46:10.321Z,100981.34
2022-09-24T14:51:26.620Z,100972.44
2022-09-24T14:56:32.969Z,100977.63
2022-09-24T15:01:35.581Z,100977.19
2022-09-24T15:06:38.749Z,100981.53
2022-09-24T15:11:43.835Z,100972.34
2022-09-24T15:16:47.684Z,100975.97
2022-09-24T15:21:53.017Z,100973.00
2022-09-24T15:27:03.558Z,100976.34
2022-09-24T15:32:15.673Z,100976.16
2022-09-24T15:37:21.075Z,100980.69
2022-09-24T15:42:27.497Z,100980.88
2022-09-24T15:47:30.022Z,100984.53
2022-09-24T15:52:34.255Z,100991.56
2022-09-24T15:57:38.112Z,100993.25
2022-09-24T16:02:43.738Z,100999.84
2022-09-24T16:07:47.063Z,100994.06
2022-09-24T16:12:51.170Z,101000.38
2022-09-24T16:17:53.848Z,100996.13
2022-09-24T16:22:56.471Z,101004.09
2022-09-24T16:28:00.345Z,101009.72
2022-09-24T16:33:02.878Z,101012.75
2022-09-24T16:38:05.581Z,101014.94
2022-09-24T16:43:09.436Z,101019.44
2022-09-24T16:48:12.343Z,101021.25
2022-09-24T16:53:15.253Z,101020.06
2022-09-24T16:58:19.123Z,101023.00
2022-09-24T17:03:21.737Z,101028.22
2022-09-24T17:08:44.388Z,101018.69
2022-09-24T17:13:48.400Z,101042.47
2022-09-24T17:18:50.934Z,101035.31
2022-09-24T17:23:53.518Z,101021.66
2022-09-24T17:28:57.575Z,101026.06
2022-09-24T17:34:02.940Z,101039.50
2022-09-24T17:39:07.029Z,101049.19
2022-09-24T17:44:12.981Z,101047.78
2022-09-24T17:49:16.332Z,101050.66
2022-09-24T17:54:21.331Z,101045.72
2022-09-24T17:59:27.119Z,101058.22
2022-09-24T18:04:31.168Z,101055.66
2022-09-24T18:09:33.795Z,101055.56
2022-09-24T18:14:39.219Z,101058.22
2022-09-24T18:19:41.817Z,101059.19
2022-09-24T18:24:44.572Z,101065.88
2022-09-24T18:29:48.425Z,101067.22
2022-09-24T18:34:50.950Z,101069.16
2022-09-24T18:39:53.872Z,101078.38
2022-09-24T18:44:57.777Z,101083.00
2022-09-24T18:50:01.836Z,101083.38
2022-09-24T18:55:04.827Z,101079.13
2022-09-24T19:00:30.944Z,101087.38
2022-09-24T19:05:35.172Z,101098.31
2022-09-24T19:10:38.132Z,101080.13
2022-09-24T19:15:42.480Z,101078.41
2022-09-24T19:20:48.490Z,101087.16
2022-09-24T19:25:51.138Z,101091.03
2022-09-24T19:30:56.440Z,101095.38
2022-09-24T19:36:01.976Z,101070.78
2022-09-24T19:41:06.816Z,101104.22
2022-09-24T19:46:13.045Z,101103.03
2022-09-24T19:51:18.162Z,101100.47
2022-09-24T19:56:22.325Z,101109.44
2022-09-24T20:01:28.822Z,101110.41
2022-09-24T20:06:33.580Z,101093.91
2022-09-24T20:11:36.805Z,101108.09
2022-09-24T20:16:42.747Z,101106.50
2022-09-24T20:21:46.271Z,101106.03
2022-09-24T20:27:06.440Z,101112.53
2022-09-24T20:32:15.257Z,101120.91
2022-09-24T20:37:17.807Z,101117.63
2022-09-24T20:42:20.571Z,101122.22
2022-09-24T20:47:24.557Z,101123.31
2022-09-24T20:52:27.226Z,101116.53
2022-09-24T20:57:30.113Z,101134.72
2022-09-24T21:02:37.939Z,101122.13
2022-09-24T21:07:44.475Z,101126.00
2022-09-24T21:12:50.867Z,101128.28
2022-09-24T21:18:21.327Z,101124.69
2022-09-24T21:23:18.261Z,101129.75
2022-09-24T21:28:20.824Z,101129.41
2022-09-24T21:33:25.043Z,101145.97
2022-09-24T21:38:29.954Z,101140.78
2022-09-24T21:43:34.958Z,101148.63
2022-09-24T21:48:39.015Z,101156.59
2022-09-24T21:53:41.565Z,101153.34
2022-09-24T21:58:44.124Z,101145.34
2022-09-24T22:03:48.232Z,101151.16
2022-09-24T22:08:51.163Z,101146.66
2022-09-24T22:13:54.040Z,101156.38
2022-09-24T22:18:58.042Z,101163.13
2022-09-24T22:24:00.967Z,101123.13
2022-09-24T22:29:04.099Z,101163.81
2022-09-24T22:34:25.663Z,101125.22
2022-09-24T22:39:28.207Z,101159.28
2022-09-24T22:44:30.755Z,101137.56
2022-09-24T22:49:36.997Z,101161.84
2022-09-24T22:54:39.520Z,101163.53
2022-09-24T22:59:42.110Z,101158.81
2022-09-24T23:04:46.214Z,101167.16
2022-09-24T23:09:49.033Z,101164.56
2022-09-24T23:14:52.376Z,101130.22
2022-09-24T23:19:56.334Z,101161.75
2022-09-24T23:24:59.174Z,101159.78
2022-09-24T23:30:02.768Z,101159.69
2022-09-24T23:35:07.179Z,101153.94
2022-09-24T23:40:10.517Z,101163.66
2022-09-24T23:45:13.159Z,101158.44
2022-09-24T23:50:17.432Z,101162.69
2022-09-24T23:55:20.008Z,101163.66
